Ardenhurst, Minnesota
Current Conditions -  °F | °C
As of 10:53 PM on Saturday 22 Nov 2014 (Local Time) from KFOZ Reporting Station
Haze Haze  
Wind Chill: -4°   Ceiling: 700
Heat Index:   Visibility: 4mi
Dew Point: -1°   Wind: 13mph
Humidity: 87%   Direction: 160°SSE
Pressure: 29.46"   Gusts: 16mph
Location:  47.8312°N, 94.1459°W
Report Text: KFOZ 230453Z AUTO 16011G14KT 4SM BR OVC007 01/M01 A2946 RMK AO2
Loading
Personal Weather Stations






























Interactive Weather Map New forecast layout! Learn more

10-Day Weather Forecast

Advertisements
Track Severe Weather on mobile